sensor_id;sensor_type;location;lat;lon;timestamp;pressure;altitude;pressure_sealevel;temperature;humidity
36828;BME280;22766;48.042;11.192;2023-04-20T00:00:58;94875.22;;;3.11;100.00
36828;BME280;22766;48.042;11.192;2023-04-20T00:03:25;94872.41;;;3.14;100.00
36828;BME280;22766;48.042;11.192;2023-04-20T00:05:53;94867.56;;;3.11;100.00
36828;BME280;22766;48.042;11.192;2023-04-20T00:08:20;94858.19;;;3.11;100.00
36828;BME280;22766;48.042;11.192;2023-04-20T00:10:46;94852.00;;;3.14;100.00
36828;BME280;22766;48.042;11.192;2023-04-20T00:13:13;94850.28;;;3.14;100.00
36828;BME280;22766;48.042;11.192;2023-04-20T00:15:40;94835.94;;;3.13;100.00
36828;BME280;22766;48.042;11.192;2023-04-20T00:18:07;94839.25;;;3.14;100.00
36828;BME280;22766;48.042;11.192;2023-04-20T00:20:34;94846.19;;;3.01;100.00
36828;BME280;22766;48.042;11.192;2023-04-20T00:23:01;94850.72;;;3.08;100.00
36828;BME280;22766;48.042;11.192;2023-04-20T00:25:28;94843.78;;;3.10;100.00
36828;BME280;22766;48.042;11.192;2023-04-20T00:27:56;94836.00;;;3.12;100.00
36828;BME280;22766;48.042;11.192;2023-04-20T00:30:23;94829.06;;;3.14;100.00
36828;BME280;22766;48.042;11.192;2023-04-20T00:32:50;94820.47;;;3.04;100.00
36828;BME280;22766;48.042;11.192;2023-04-20T00:35:17;94821.25;;;3.04;100.00
36828;BME280;22766;48.042;11.192;2023-04-20T00:37:44;94815.47;;;3.02;100.00
36828;BME280;22766;48.042;11.192;2023-04-20T00:40:10;94807.59;;;3.05;100.00
36828;BME280;22766;48.042;11.192;2023-04-20T00:42:37;94793.44;;;3.01;100.00
36828;BME280;22766;48.042;11.192;2023-04-20T00:45:06;94779.53;;;2.94;100.00
36828;BME280;22766;48.042;11.192;2023-04-20T00:47:33;94773.50;;;2.95;100.00
36828;BME280;22766;48.042;11.192;2023-04-20T00:50:01;94767.22;;;2.88;100.00
36828;BME280;22766;48.042;11.192;2023-04-20T00:52:29;94772.34;;;2.99;100.00
36828;BME280;22766;48.042;11.192;2023-04-20T00:54:57;94775.47;;;3.03;100.00
36828;BME280;22766;48.042;11.192;2023-04-20T00:57:25;94782.66;;;2.98;100.00
36828;BME280;22766;48.042;11.192;2023-04-20T00:59:53;94775.13;;;2.96;100.00
36828;BME280;22766;48.042;11.192;2023-04-20T01:02:21;94776.97;;;2.94;100.00
36828;BME280;22766;48.042;11.192;2023-04-20T01:04:48;94772.47;;;2.98;100.00
36828;BME280;22766;48.042;11.192;2023-04-20T01:07:15;94770.81;;;2.97;100.00
36828;BME280;22766;48.042;11.192;2023-04-20T01:09:41;94773.38;;;2.97;100.00
36828;BME280;22766;48.042;11.192;2023-04-20T01:12:09;94770.63;;;3.00;100.00
36828;BME280;22766;48.042;11.192;2023-04-20T01:14:37;94775.03;;;2.98;100.00
36828;BME280;22766;48.042;11.192;2023-04-20T01:17:03;94778.63;;;3.06;100.00
36828;BME280;22766;48.042;11.192;2023-04-20T01:19:32;94781.53;;;3.02;100.00
36828;BME280;22766;48.042;11.192;2023-04-20T01:22:00;94770.88;;;3.08;100.00
36828;BME280;22766;48.042;11.192;2023-04-20T01:24:27;94758.13;;;3.08;100.00
36828;BME280;22766;48.042;11.192;2023-04-20T01:26:54;94761.72;;;3.05;100.00
36828;BME280;22766;48.042;11.192;2023-04-20T01:29:21;94761.56;;;2.96;100.00
36828;BME280;22766;48.042;11.192;2023-04-20T01:31:48;94749.41;;;2.99;100.00
36828;BME280;22766;48.042;11.192;2023-04-20T01:34:18;94755.19;;;3.01;100.00
36828;BME280;22766;48.042;11.192;2023-04-20T01:36:45;94749.84;;;3.04;100.00
36828;BME280;22766;48.042;11.192;2023-04-20T01:39:11;94749.97;;;3.03;100.00
36828;BME280;22766;48.042;11.192;2023-04-20T01:41:38;94753.22;;;2.94;100.00
36828;BME280;22766;48.042;11.192;2023-04-20T01:44:05;94744.75;;;2.93;100.00
36828;BME280;22766;48.042;11.192;2023-04-20T01:46:36;94737.91;;;2.94;100.00
36828;BME280;22766;48.042;11.192;2023-04-20T01:49:06;94739.75;;;2.92;100.00
36828;BME280;22766;48.042;11.192;2023-04-20T01:51:33;94733.84;;;2.91;100.00
36828;BME280;22766;48.042;11.192;2023-04-20T01:54:01;94731.78;;;2.96;100.00
36828;BME280;22766;48.042;11.192;2023-04-20T01:56:28;94730.84;;;2.97;100.00
36828;BME280;22766;48.042;11.192;2023-04-20T01:58:56;94720.88;;;2.94;100.00
36828;BME280;22766;48.042;11.192;2023-04-20T02:01:23;94720.97;;;2.93;100.00
36828;BME280;22766;48.042;11.192;2023-04-20T02:03:51;94717.53;;;2.94;100.00
36828;BME280;22766;48.042;11.192;2023-04-20T02:06:19;94724.22;;;2.95;100.00
36828;BME280;22766;48.042;11.192;2023-04-20T02:08:46;94721.81;;;2.93;100.00
36828;BME280;22766;48.042;11.192;2023-04-20T02:11:13;94722.50;;;2.95;100.00
36828;BME280;22766;48.042;11.192;2023-04-20T02:13:40;94718.22;;;2.96;100.00
36828;BME280;22766;48.042;11.192;2023-04-20T02:16:07;94713.94;;;2.96;100.00
36828;BME280;22766;48.042;11.192;2023-04-20T02:18:33;94714.16;;;3.04;100.00
36828;BME280;22766;48.042;11.192;2023-04-20T02:21:00;94711.84;;;3.01;100.00
36828;BME280;22766;48.042;11.192;2023-04-20T02:23:27;94710.13;;;3.02;100.00
36828;BME280;22766;48.042;11.192;2023-04-20T02:25:54;94708.59;;;2.99;100.00
36828;BME280;22766;48.042;11.192;2023-04-20T02:28:20;94703.13;;;2.93;100.00
36828;BME280;22766;48.042;11.192;2023-04-20T02:30:47;94714.28;;;2.92;100.00
36828;BME280;22766;48.042;11.192;2023-04-20T02:33:14;94711.84;;;2.90;100.00
36828;BME280;22766;48.042;11.192;2023-04-20T02:35:41;94707.19;;;2.84;100.00
36828;BME280;22766;48.042;11.192;2023-04-20T02:38:09;94706.16;;;2.87;100.00
36828;BME280;22766;48.042;11.192;2023-04-20T02:40:37;94700.81;;;2.90;100.00
36828;BME280;22766;48.042;11.192;2023-04-20T02:43:04;94695.59;;;2.91;100.00
36828;BME280;22766;48.042;11.192;2023-04-20T02:45:32;94692.94;;;2.93;100.00
36828;BME280;22766;48.042;11.192;2023-04-20T02:47:58;94684.81;;;2.88;100.00
36828;BME280;22766;48.042;11.192;2023-04-20T02:50:29;94684.00;;;2.87;100.00
36828;BME280;22766;48.042;11.192;2023-04-20T02:53:22;94688.06;;;2.90;100.00
36828;BME280;22766;48.042;11.192;2023-04-20T02:56:08;94685.06;;;2.84;100.00
36828;BME280;22766;48.042;11.192;2023-04-20T02:58:41;94684.94;;;2.75;100.00
36828;BME280;22766;48.042;11.192;2023-04-20T03:01:15;94681.13;;;2.80;100.00
36828;BME280;22766;48.042;11.192;2023-04-20T03:03:43;94671.38;;;2.74;100.00
36828;BME280;22766;48.042;11.192;2023-04-20T03:06:11;94670.66;;;2.72;100.00
36828;BME280;22766;48.042;11.192;2023-04-20T03:08:40;94673.09;;;2.74;100.00
36828;BME280;22766;48.042;11.192;2023-04-20T03:11:27;94662.31;;;2.70;100.00
36828;BME280;22766;48.042;11.192;2023-04-20T03:13:55;94672.16;;;2.64;100.00
36828;BME280;22766;48.042;11.192;2023-04-20T03:16:21;94672.16;;;2.64;100.00
36828;BME280;22766;48.042;11.192;2023-04-20T03:18:51;94668.44;;;2.68;100.00
36828;BME280;22766;48.042;11.192;2023-04-20T03:21:17;94668.69;;;2.65;100.00
36828;BME280;22766;48.042;11.192;2023-04-20T03:23:44;94671.00;;;2.68;100.00
36828;BME280;22766;48.042;11.192;2023-04-20T03:26:11;94671.00;;;2.68;100.00
36828;BME280;22766;48.042;11.192;2023-04-20T03:29:01;94670.41;;;2.64;100.00
36828;BME280;22766;48.042;11.192;2023-04-20T03:31:28;94668.91;;;2.62;100.00
36828;BME280;22766;48.042;11.192;2023-04-20T03:33:56;94667.88;;;2.64;100.00
36828;BME280;22766;48.042;11.192;2023-04-20T03:36:23;94665.00;;;2.69;100.00
36828;BME280;22766;48.042;11.192;2023-04-20T03:38:50;94661.03;;;2.65;100.00
36828;BME280;22766;48.042;11.192;2023-04-20T03:41:16;94659.63;;;2.61;100.00
36828;BME280;22766;48.042;11.192;2023-04-20T03:43:43;94647.84;;;2.60;100.00
36828;BME280;22766;48.042;11.192;2023-04-20T03:46:10;94649.69;;;2.58;100.00
36828;BME280;22766;48.042;11.192;2023-04-20T03:48:37;94644.13;;;2.64;100.00
36828;BME280;22766;48.042;11.192;2023-04-20T03:51:04;94643.31;;;2.63;100.00
36828;BME280;22766;48.042;11.192;2023-04-20T03:53:30;94652.69;;;2.63;100.00
36828;BME280;22766;48.042;11.192;2023-04-20T03:55:58;94650.38;;;2.60;100.00
36828;BME280;22766;48.042;11.192;2023-04-20T03:58:25;94644.78;;;2.55;100.00
36828;BME280;22766;48.042;11.192;2023-04-20T04:01:04;94637.16;;;2.55;100.00
36828;BME280;22766;48.042;11.192;2023-04-20T04:03:35;94645.84;;;2.52;100.00
36828;BME280;22766;48.042;11.192;2023-04-20T04:06:02;94640.63;;;2.54;100.00
36828;BME280;22766;48.042;11.192;2023-04-20T04:08:31;94643.53;;;2.60;100.00
36828;BME280;22766;48.042;11.192;2023-04-20T04:10:59;94642.16;;;2.67;100.00
36828;BME280;22766;48.042;11.192;2023-04-20T04:13:26;94639.94;;;2.63;100.00
36828;BME280;22766;48.042;11.192;2023-04-20T04:15:53;94632.69;;;2.69;100.00
36828;BME280;22766;48.042;11.192;2023-04-20T04:18:21;94626.75;;;2.69;100.00
36828;BME280;22766;48.042;11.192;2023-04-20T04:20:48;94627.66;;;2.68;100.00
36828;BME280;22766;48.042;11.192;2023-04-20T04:23:15;94621.41;;;2.72;100.00
36828;BME280;22766;48.042;11.192;2023-04-20T04:25:48;94630.13;;;2.69;100.00
36828;BME280;22766;48.042;11.192;2023-04-20T04:28:20;94641.09;;;2.70;100.00
36828;BME280;22766;48.042;11.192;2023-04-20T04:31:00;94639.63;;;2.67;100.00
36828;BME280;22766;48.042;11.192;2023-04-20T04:33:27;94634.97;;;2.61;100.00
36828;BME280;22766;48.042;11.192;2023-04-20T04:35:55;94623.63;;;2.54;100.00
36828;BME280;22766;48.042;11.192;2023-04-20T04:38:23;94622.69;;;2.55;100.00
36828;BME280;22766;48.042;11.192;2023-04-20T04:40:50;94627.66;;;2.57;100.00
36828;BME280;22766;48.042;11.192;2023-04-20T04:43:19;94626.75;;;2.58;100.00
36828;BME280;22766;48.042;11.192;2023-04-20T04:45:55;94634.72;;;2.53;100.00
36828;BME280;22766;48.042;11.192;2023-04-20T04:48:24;94628.00;;;2.52;100.00
36828;BME280;22766;48.042;11.192;2023-04-20T04:50:51;94624.91;;;2.60;100.00
36828;BME280;22766;48.042;11.192;2023-04-20T04:53:18;94625.69;;;2.60;100.00
36828;BME280;22766;48.042;11.192;2023-04-20T04:55:44;94622.44;;;2.58;100.00
36828;BME280;22766;48.042;11.192;2023-04-20T04:58:11;94625.69;;;2.60;100.00
36828;BME280;22766;48.042;11.192;2023-04-20T05:00:38;94632.09;;;2.66;100.00
36828;BME280;22766;48.042;11.192;2023-04-20T05:03:05;94630.59;;;2.74;100.00
36828;BME280;22766;48.042;11.192;2023-04-20T05:05:32;94615.97;;;2.65;100.00
36828;BME280;22766;48.042;11.192;2023-04-20T05:07:59;94614.13;;;2.67;100.00
36828;BME280;22766;48.042;11.192;2023-04-20T05:10:25;94609.94;;;2.66;100.00
36828;BME280;22766;48.042;11.192;2023-04-20T05:12:52;94617.25;;;2.71;100.00
36828;BME280;22766;48.042;11.192;2023-04-20T05:15:19;94619.56;;;2.74;100.00
36828;BME280;22766;48.042;11.192;2023-04-20T05:17:46;94622.59;;;2.79;100.00
36828;BME280;22766;48.042;11.192;2023-04-20T05:20:15;94621.09;;;2.76;100.00
36828;BME280;22766;48.042;11.192;2023-04-20T05:22:42;94616.69;;;2.90;100.00
36828;BME280;22766;48.042;11.192;2023-04-20T05:25:09;94627.81;;;2.89;100.00
36828;BME280;22766;48.042;11.192;2023-04-20T05:27:39;94627.81;;;3.00;100.00
36828;BME280;22766;48.042;11.192;2023-04-20T05:30:06;94623.53;;;3.00;100.00
36828;BME280;22766;48.042;11.192;2023-04-20T05:32:46;94625.03;;;3.14;100.00
36828;BME280;22766;48.042;11.192;2023-04-20T05:35:17;94623.88;;;3.18;100.00
36828;BME280;22766;48.042;11.192;2023-04-20T05:37:44;94622.94;;;3.19;100.00
36828;BME280;22766;48.042;11.192;2023-04-20T05:40:12;94613.66;;;3.18;100.00
36828;BME280;22766;48.042;11.192;2023-04-20T05:42:40;94606.81;;;3.29;100.00
36828;BME280;22766;48.042;11.192;2023-04-20T05:45:07;94606.25;;;3.26;100.00
36828;BME280;22766;48.042;11.192;2023-04-20T05:47:34;94606.25;;;3.26;100.00
36828;BME280;22766;48.042;11.192;2023-04-20T05:50:01;94611.00;;;3.30;100.00
36828;BME280;22766;48.042;11.192;2023-04-20T05:52:28;94610.31;;;3.28;100.00
36828;BME280;22766;48.042;11.192;2023-04-20T05:54:54;94611.22;;;3.16;100.00
36828;BME280;22766;48.042;11.192;2023-04-20T05:57:23;94601.50;;;3.10;100.00
36828;BME280;22766;48.042;11.192;2023-04-20T05:59:50;94596.97;;;3.14;100.00
36828;BME280;22766;48.042;11.192;2023-04-20T06:02:17;94592.81;;;3.13;100.00
36828;BME280;22766;48.042;11.192;2023-04-20T06:04:43;94588.03;;;3.19;100.00
36828;BME280;22766;48.042;11.192;2023-04-20T06:07:11;94591.41;;;3.20;100.00
36828;BME280;22766;48.042;11.192;2023-04-20T06:09:38;94588.81;;;3.31;100.00
36828;BME280;22766;48.042;11.192;2023-04-20T06:12:04;94583.38;;;3.35;100.00
36828;BME280;22766;48.042;11.192;2023-04-20T06:14:31;94588.94;;;3.40;100.00
36828;BME280;22766;48.042;11.192;2023-04-20T06:16:58;94586.94;;;3.55;100.00
36828;BME280;22766;48.042;11.192;2023-04-20T06:19:25;94590.44;;;3.43;100.00
36828;BME280;22766;48.042;11.192;2023-04-20T06:21:51;94588.13;;;3.40;100.00
36828;BME280;22766;48.042;11.192;2023-04-20T06:24:18;94579.69;;;3.28;100.00
36828;BME280;22766;48.042;11.192;2023-04-20T06:26:44;94588.97;;;3.18;100.00
36828;BME280;22766;48.042;11.192;2023-04-20T06:29:11;94591.28;;;3.21;100.00
36828;BME280;22766;48.042;11.192;2023-04-20T06:31:38;94586.28;;;3.31;100.00
36828;BME280;22766;48.042;11.192;2023-04-20T06:34:05;94589.06;;;3.28;100.00
36828;BME280;22766;48.042;11.192;2023-04-20T06:36:32;94593.34;;;3.38;100.00
36828;BME280;22766;48.042;11.192;2023-04-20T06:38:58;94597.66;;;3.38;100.00
36828;BME280;22766;48.042;11.192;2023-04-20T06:41:25;94596.69;;;3.39;100.00
36828;BME280;22766;48.042;11.192;2023-04-20T06:43:52;94592.19;;;3.31;100.00
36828;BME280;22766;48.042;11.192;2023-04-20T06:46:19;94587.22;;;3.30;100.00
36828;BME280;22766;48.042;11.192;2023-04-20T06:48:46;94580.50;;;3.18;100.00
36828;BME280;22766;48.042;11.192;2023-04-20T06:51:12;94580.47;;;3.29;100.00
36828;BME280;22766;48.042;11.192;2023-04-20T06:53:39;94579.31;;;3.33;100.00
36828;BME280;22766;48.042;11.192;2023-04-20T06:56:06;94585.38;;;3.32;100.00
36828;BME280;22766;48.042;11.192;2023-04-20T06:58:33;94596.25;;;3.34;100.00
36828;BME280;22766;48.042;11.192;2023-04-20T07:01:00;94614.47;;;3.18;100.00
36828;BME280;22766;48.042;11.192;2023-04-20T07:03:27;94621.00;;;3.11;100.00
36828;BME280;22766;48.042;11.192;2023-04-20T07:05:54;94621.56;;;3.15;100.00
36828;BME280;22766;48.042;11.192;2023-04-20T07:08:21;94612.50;;;3.11;100.00
36828;BME280;22766;48.042;11.192;2023-04-20T07:10:48;94612.06;;;3.06;100.00
36828;BME280;22766;48.042;11.192;2023-04-20T07:13:14;94610.44;;;3.05;100.00
36828;BME280;22766;48.042;11.192;2023-04-20T07:15:41;94610.44;;;3.05;100.00
36828;BME280;22766;48.042;11.192;2023-04-20T07:18:10;94605.56;;;3.13;100.00
36828;BME280;22766;48.042;11.192;2023-04-20T07:20:37;94609.50;;;3.17;100.00
36828;BME280;22766;48.042;11.192;2023-04-20T07:23:04;94610.88;;;3.21;100.00
36828;BME280;22766;48.042;11.192;2023-04-20T07:25:31;94608.56;;;3.18;100.00
36828;BME280;22766;48.042;11.192;2023-04-20T07:27:58;94610.19;;;3.19;100.00
36828;BME280;22766;48.042;11.192;2023-04-20T07:30:25;94603.44;;;3.29;100.00
36828;BME280;22766;48.042;11.192;2023-04-20T07:32:52;94597.19;;;3.33;100.00
36828;BME280;22766;48.042;11.192;2023-04-20T07:35:19;94598.69;;;3.35;100.00
36828;BME280;22766;48.042;11.192;2023-04-20T07:37:46;94594.97;;;3.39;100.00
36828;BME280;22766;48.042;11.192;2023-04-20T07:40:13;94606.34;;;3.35;100.00
36828;BME280;22766;48.042;11.192;2023-04-20T07:42:39;94600.53;;;3.33;100.00
36828;BME280;22766;48.042;11.192;2023-04-20T07:45:07;94598.09;;;3.43;100.00
36828;BME280;22766;48.042;11.192;2023-04-20T07:47:34;94590.09;;;3.47;100.00
36828;BME280;22766;48.042;11.192;2023-04-20T07:50:04;94592.75;;;3.57;100.00
36828;BME280;22766;48.042;11.192;2023-04-20T07:52:32;94593.22;;;3.51;100.00
36828;BME280;22766;48.042;11.192;2023-04-20T07:54:58;94602.13;;;3.56;100.00
36828;BME280;22766;48.042;11.192;2023-04-20T07:57:26;94613.84;;;3.59;100.00
36828;BME280;22766;48.042;11.192;2023-04-20T07:59:53;94610.69;;;3.66;100.00
36828;BME280;22766;48.042;11.192;2023-04-20T08:02:20;94607.97;;;3.79;100.00
36828;BME280;22766;48.042;11.192;2023-04-20T08:04:47;94613.97;;;3.89;100.00
36828;BME280;22766;48.042;11.192;2023-04-20T08:07:15;94615.53;;;4.01;100.00
36828;BME280;22766;48.042;11.192;2023-04-20T08:09:43;94625.31;;;3.96;100.00
36828;BME280;22766;48.042;11.192;2023-04-20T08:12:09;94619.00;;;4.11;100.00
36828;BME280;22766;48.042;11.192;2023-04-20T08:14:36;94616.78;;;4.07;100.00
36828;BME280;22766;48.042;11.192;2023-04-20T08:17:03;94614.06;;;3.99;100.00
36828;BME280;22766;48.042;11.192;2023-04-20T08:19:30;94604.72;;;4.09;100.00
36828;BME280;22766;48.042;11.192;2023-04-20T08:21:57;94607.97;;;4.11;100.00
36828;BME280;22766;48.042;11.192;2023-04-20T08:24:26;94617.06;;;4.04;100.00
36828;BME280;22766;48.042;11.192;2023-04-20T08:26:53;94608.50;;;4.14;100.00
36828;BME280;22766;48.042;11.192;2023-04-20T08:29:20;94614.31;;;4.16;100.00
36828;BME280;22766;48.042;11.192;2023-04-20T08:31:47;94615.34;;;4.25;100.00
36828;BME280;22766;48.042;11.192;2023-04-20T08:34:17;94616.03;;;4.27;100.00
36828;BME280;22766;48.042;11.192;2023-04-20T08:36:44;94614.72;;;4.32;100.00
36828;BME280;22766;48.042;11.192;2023-04-20T08:39:13;94610.50;;;4.42;100.00
36828;BME280;22766;48.042;11.192;2023-04-20T08:41:40;94609.81;;;4.40;100.00
36828;BME280;22766;48.042;11.192;2023-04-20T08:44:07;94602.69;;;4.44;100.00
36828;BME280;22766;48.042;11.192;2023-04-20T08:46:34;94596.19;;;4.60;100.00
36828;BME280;22766;48.042;11.192;2023-04-20T08:49:01;94591.72;;;4.83;100.00
36828;BME280;22766;48.042;11.192;2023-04-20T08:51:29;94568.38;;;4.67;100.00
36828;BME280;22766;48.042;11.192;2023-04-20T08:54:03;94567.22;;;4.81;100.00
36828;BME280;22766;48.042;11.192;2023-04-20T08:56:37;94566.06;;;4.94;100.00
36828;BME280;22766;48.042;11.192;2023-04-20T08:59:05;94573.09;;;4.71;100.00
36828;BME280;22766;48.042;11.192;2023-04-20T09:01:36;94574.97;;;4.69;100.00
36828;BME280;22766;48.042;11.192;2023-04-20T09:04:24;94580.34;;;4.66;100.00
36828;BME280;22766;48.042;11.192;2023-04-20T09:06:54;94581.97;;;4.47;100.00
36828;BME280;22766;48.042;11.192;2023-04-20T09:09:22;94593.28;;;4.44;100.00
36828;BME280;22766;48.042;11.192;2023-04-20T09:14:28;94590.47;;;4.27;100.00
36828;BME280;22766;48.042;11.192;2023-04-20T09:16:57;94575.56;;;4.32;100.00
36828;BME280;22766;48.042;11.192;2023-04-20T09:19:28;94577.88;;;4.35;100.00
36828;BME280;22766;48.042;11.192;2023-04-20T09:21:57;94588.22;;;4.54;100.00
36828;BME280;22766;48.042;11.192;2023-04-20T09:24:35;94581.13;;;4.37;100.00
36828;BME280;22766;48.042;11.192;2023-04-20T09:27:17;94590.03;;;4.42;100.00
36828;BME280;22766;48.042;11.192;2023-04-20T09:29:56;94572.66;;;4.36;100.00
36828;BME280;22766;48.042;11.192;2023-04-20T09:32:24;94558.25;;;4.35;100.00
36828;BME280;22766;48.042;11.192;2023-04-20T09:34:51;94553.63;;;4.29;100.00
36828;BME280;22766;48.042;11.192;2023-04-20T09:37:17;94556.31;;;4.28;100.00
36828;BME280;22766;48.042;11.192;2023-04-20T09:39:45;94555.88;;;4.23;100.00
36828;BME280;22766;48.042;11.192;2023-04-20T09:42:14;94561.81;;;4.23;100.00
36828;BME280;22766;48.042;11.192;2023-04-20T09:44:41;94555.31;;;4.40;100.00
36828;BME280;22766;48.042;11.192;2023-04-20T09:47:15;94548.06;;;4.45;100.00
36828;BME280;22766;48.042;11.192;2023-04-20T09:49:45;94545.94;;;4.70;100.00
36828;BME280;22766;48.042;11.192;2023-04-20T09:52:17;94544.72;;;4.74;100.00
36828;BME280;22766;48.042;11.192;2023-04-20T09:54:44;94563.91;;;4.59;100.00
36828;BME280;22766;48.042;11.192;2023-04-20T09:57:12;94565.66;;;4.59;100.00
36828;BME280;22766;48.042;11.192;2023-04-20T09:59:42;94552.69;;;4.51;100.00
36828;BME280;22766;48.042;11.192;2023-04-20T10:02:10;94551.31;;;4.47;100.00
36828;BME280;22766;48.042;11.192;2023-04-20T10:04:51;94542.88;;;4.56;100.00
36828;BME280;22766;48.042;11.192;2023-04-20T10:07:29;94543.63;;;4.47;100.00
36828;BME280;22766;48.042;11.192;2023-04-20T10:10:11;94546.25;;;4.56;100.00
36828;BME280;22766;48.042;11.192;2023-04-20T10:12:48;94547.44;;;4.52;100.00
36828;BME280;22766;48.042;11.192;2023-04-20T10:15:15;94546.66;;;4.52;100.00
36828;BME280;22766;48.042;11.192;2023-04-20T10:17:42;94537.59;;;4.48;100.00
36828;BME280;22766;48.042;11.192;2023-04-20T10:20:24;94556.81;;;4.22;100.00
36828;BME280;22766;48.042;11.192;2023-04-20T10:22:52;94564.44;;;4.33;100.00
36828;BME280;22766;48.042;11.192;2023-04-20T10:25:22;94581.69;;;4.40;100.00
36828;BME280;22766;48.042;11.192;2023-04-20T10:28:00;94577.38;;;4.41;100.00
36828;BME280;22766;48.042;11.192;2023-04-20T10:30:31;94581.13;;;4.37;100.00
36828;BME280;22766;48.042;11.192;2023-04-20T10:33:16;94576.75;;;4.28;100.00
36828;BME280;22766;48.042;11.192;2023-04-20T10:35:51;94586.34;;;4.35;100.00
36828;BME280;22766;48.042;11.192;2023-04-20T10:38:34;94577.22;;;4.33;100.00
36828;BME280;22766;48.042;11.192;2023-04-20T10:41:08;94573.09;;;4.21;100.00
36828;BME280;22766;48.042;11.192;2023-04-20T10:43:36;94557.75;;;4.21;100.00
36828;BME280;22766;48.042;11.192;2023-04-20T10:46:20;94555.59;;;4.37;100.00
36828;BME280;22766;48.042;11.192;2023-04-20T10:48:58;94552.81;;;4.49;100.00
36828;BME280;22766;48.042;11.192;2023-04-20T10:51:28;94537.28;;;4.41;100.00
36828;BME280;22766;48.042;11.192;2023-04-20T10:54:05;94529.53;;;4.52;100.00
36828;BME280;22766;48.042;11.192;2023-04-20T10:56:40;94517.75;;;4.61;100.00
36828;BME280;22766;48.042;11.192;2023-04-20T10:59:09;94521.69;;;4.65;100.00
36828;BME280;22766;48.042;11.192;2023-04-20T11:01:37;94526.59;;;4.87;100.00
36828;BME280;22766;48.042;11.192;2023-04-20T11:04:04;94524.84;;;4.88;100.00
36828;BME280;22766;48.042;11.192;2023-04-20T11:06:33;94533.59;;;4.85;100.00
36828;BME280;22766;48.042;11.192;2023-04-20T11:09:00;94519.19;;;4.84;100.00
36828;BME280;22766;48.042;11.192;2023-04-20T11:11:27;94516.50;;;4.86;100.00
36828;BME280;22766;48.042;11.192;2023-04-20T11:14:07;94519.97;;;4.85;100.00
36828;BME280;22766;48.042;11.192;2023-04-20T11:16:35;94519.06;;;4.86;100.00
36828;BME280;22766;48.042;11.192;2023-04-20T11:19:24;94520.75;;;4.75;100.00
36828;BME280;22766;48.042;11.192;2023-04-20T11:21:52;94514.47;;;4.80;100.00
36828;BME280;22766;48.042;11.192;2023-04-20T11:24:20;94515.00;;;4.83;100.00
36828;BME280;22766;48.042;11.192;2023-04-20T11:26:48;94500.78;;;5.00;100.00
36828;BME280;22766;48.042;11.192;2023-04-20T11:29:36;94493.38;;;4.97;100.00
36828;BME280;22766;48.042;11.192;2023-04-20T11:32:06;94483.22;;;5.25;100.00
36828;BME280;22766;48.042;11.192;2023-04-20T11:34:34;94500.44;;;5.23;100.00
36828;BME280;22766;48.042;11.192;2023-04-20T11:37:09;94493.13;;;5.09;100.00
36828;BME280;22766;48.042;11.192;2023-04-20T11:39:37;94504.47;;;5.16;100.00
36828;BME280;22766;48.042;11.192;2023-04-20T11:42:04;94503.53;;;5.17;100.00
36828;BME280;22766;48.042;11.192;2023-04-20T11:44:31;94515.78;;;5.14;100.00
36828;BME280;22766;48.042;11.192;2023-04-20T11:46:59;94515.78;;;5.14;100.00
36828;BME280;22766;48.042;11.192;2023-04-20T11:49:27;94512.66;;;5.10;100.00
36828;BME280;22766;48.042;11.192;2023-04-20T11:51:54;94514.69;;;5.07;100.00
36828;BME280;22766;48.042;11.192;2023-04-20T11:54:21;94519.00;;;5.06;100.00
36828;BME280;22766;48.042;11.192;2023-04-20T11:56:50;94517.09;;;4.99;100.00
36828;BME280;22766;48.042;11.192;2023-04-20T11:59:16;94516.56;;;5.05;100.00
36828;BME280;22766;48.042;11.192;2023-04-20T12:01:46;94510.69;;;5.23;100.00
36828;BME280;22766;48.042;11.192;2023-04-20T12:04:13;94506.06;;;5.08;100.00
36828;BME280;22766;48.042;11.192;2023-04-20T12:06:41;94502.63;;;5.28;100.00
36828;BME280;22766;48.042;11.192;2023-04-20T12:09:08;94502.88;;;5.34;100.00
36828;BME280;22766;48.042;11.192;2023-04-20T12:11:35;94496.41;;;5.40;100.00
36828;BME280;22766;48.042;11.192;2023-04-20T12:14:01;94499.53;;;5.62;100.00
36828;BME280;22766;48.042;11.192;2023-04-20T12:16:30;94493.72;;;5.70;100.00
36828;BME280;22766;48.042;11.192;2023-04-20T12:18:57;94487.00;;;5.69;100.00
36828;BME280;22766;48.042;11.192;2023-04-20T12:21:23;94482.81;;;5.68;100.00
36828;BME280;22766;48.042;11.192;2023-04-20T12:23:50;94486.31;;;5.77;100.00
36828;BME280;22766;48.042;11.192;2023-04-20T12:26:17;94481.06;;;5.78;100.00
36828;BME280;22766;48.042;11.192;2023-04-20T12:28:43;94487.00;;;5.69;100.00
36828;BME280;22766;48.042;11.192;2023-04-20T12:31:13;94483.47;;;5.51;100.00
36828;BME280;22766;48.042;11.192;2023-04-20T12:33:40;94479.84;;;5.44;100.00
36828;BME280;22766;48.042;11.192;2023-04-20T12:36:06;94482.56;;;5.42;100.00
36828;BME280;22766;48.042;11.192;2023-04-20T12:38:33;94475.00;;;5.60;100.00
36828;BME280;22766;48.042;11.192;2023-04-20T12:41:00;94477.28;;;5.53;100.00
36828;BME280;22766;48.042;11.192;2023-04-20T12:43:27;94485.38;;;5.68;100.00
36828;BME280;22766;48.042;11.192;2023-04-20T12:45:54;94488.34;;;5.83;100.00
36828;BME280;22766;48.042;11.192;2023-04-20T12:48:21;94477.44;;;5.81;100.00
36828;BME280;22766;48.042;11.192;2023-04-20T12:50:48;94476.75;;;5.98;100.00
36828;BME280;22766;48.042;11.192;2023-04-20T12:53:16;94478.28;;;5.91;100.00
36828;BME280;22766;48.042;11.192;2023-04-20T12:55:43;94477.16;;;6.03;100.00
36828;BME280;22766;48.042;11.192;2023-04-20T12:58:09;94476.09;;;5.96;100.00
36828;BME280;22766;48.042;11.192;2023-04-20T13:00:36;94466.38;;;5.90;100.00